sensor_id;sensor_type;location;lat;lon;timestamp;temperature;humidity
5136;DHT22;2586;48.710;9.202;2023-02-28T00:00:20;-1.90;86.10
5136;DHT22;2586;48.710;9.202;2023-02-28T00:02:46;-1.90;87.10
5136;DHT22;2586;48.710;9.202;2023-02-28T00:05:14;-1.90;90.20
5136;DHT22;2586;48.710;9.202;2023-02-28T00:07:40;-2.00;90.60
5136;DHT22;2586;48.710;9.202;2023-02-28T00:10:07;-2.00;92.10
5136;DHT22;2586;48.710;9.202;2023-02-28T00:12:34;-2.00;99.90
5136;DHT22;2586;48.710;9.202;2023-02-28T00:15:00;-2.00;98.90
5136;DHT22;2586;48.710;9.202;2023-02-28T00:17:26;-2.10;99.90
5136;DHT22;2586;48.710;9.202;2023-02-28T00:19:51;-2.10;99.90
5136;DHT22;2586;48.710;9.202;2023-02-28T00:22:18;-2.10;99.90
5136;DHT22;2586;48.710;9.202;2023-02-28T00:24:44;-2.10;99.90
5136;DHT22;2586;48.710;9.202;2023-02-28T00:27:10;-2.10;99.90
5136;DHT22;2586;48.710;9.202;2023-02-28T00:29:37;-2.10;99.90
5136;DHT22;2586;48.710;9.202;2023-02-28T00:32:03;-2.20;99.90
5136;DHT22;2586;48.710;9.202;2023-02-28T00:34:28;-2.10;99.90
5136;DHT22;2586;48.710;9.202;2023-02-28T00:36:54;-2.20;99.90
5136;DHT22;2586;48.710;9.202;2023-02-28T00:39:20;-2.20;99.90
5136;DHT22;2586;48.710;9.202;2023-02-28T00:41:45;-2.30;99.90
5136;DHT22;2586;48.710;9.202;2023-02-28T00:44:11;-2.30;99.90
5136;DHT22;2586;48.710;9.202;2023-02-28T00:46:36;-2.30;99.90
5136;DHT22;2586;48.710;9.202;2023-02-28T00:49:02;-2.30;99.90
5136;DHT22;2586;48.710;9.202;2023-02-28T00:51:28;-2.20;99.90
5136;DHT22;2586;48.710;9.202;2023-02-28T00:53:54;-2.30;99.90
5136;DHT22;2586;48.710;9.202;2023-02-28T00:56:19;-2.30;99.90
5136;DHT22;2586;48.710;9.202;2023-02-28T00:58:45;-2.30;99.90
5136;DHT22;2586;48.710;9.202;2023-02-28T01:01:11;-2.30;99.90
5136;DHT22;2586;48.710;9.202;2023-02-28T01:03:36;-2.30;99.90
5136;DHT22;2586;48.710;9.202;2023-02-28T01:06:02;-2.30;99.90
5136;DHT22;2586;48.710;9.202;2023-02-28T01:08:28;-2.30;99.90
5136;DHT22;2586;48.710;9.202;2023-02-28T01:10:53;-2.30;99.90
5136;DHT22;2586;48.710;9.202;2023-02-28T01:13:19;-2.30;99.90
5136;DHT22;2586;48.710;9.202;2023-02-28T01:15:49;-2.30;99.90
5136;DHT22;2586;48.710;9.202;2023-02-28T01:18:16;-2.30;99.90
5136;DHT22;2586;48.710;9.202;2023-02-28T01:20:42;-2.30;99.90
5136;DHT22;2586;48.710;9.202;2023-02-28T01:23:08;-2.30;99.90
5136;DHT22;2586;48.710;9.202;2023-02-28T01:25:37;-2.30;99.90
5136;DHT22;2586;48.710;9.202;2023-02-28T01:28:03;-2.30;99.90
5136;DHT22;2586;48.710;9.202;2023-02-28T01:30:30;-2.30;99.90
5136;DHT22;2586;48.710;9.202;2023-02-28T01:32:55;-2.40;99.90
5136;DHT22;2586;48.710;9.202;2023-02-28T01:35:21;-2.40;99.90
5136;DHT22;2586;48.710;9.202;2023-02-28T01:37:46;-2.40;99.90
5136;DHT22;2586;48.710;9.202;2023-02-28T01:40:13;-2.40;99.90
5136;DHT22;2586;48.710;9.202;2023-02-28T01:42:38;-2.40;99.90
5136;DHT22;2586;48.710;9.202;2023-02-28T01:45:26;-2.40;99.90
5136;DHT22;2586;48.710;9.202;2023-02-28T01:47:55;-2.40;99.90
5136;DHT22;2586;48.710;9.202;2023-02-28T01:50:28;-2.40;99.90
5136;DHT22;2586;48.710;9.202;2023-02-28T01:52:56;-2.40;99.90
5136;DHT22;2586;48.710;9.202;2023-02-28T01:55:23;-2.40;99.90
5136;DHT22;2586;48.710;9.202;2023-02-28T01:57:57;-2.40;99.90
5136;DHT22;2586;48.710;9.202;2023-02-28T02:00:26;-2.40;99.90
5136;DHT22;2586;48.710;9.202;2023-02-28T02:02:55;-2.40;99.90
5136;DHT22;2586;48.710;9.202;2023-02-28T02:05:28;-2.40;99.90
5136;DHT22;2586;48.710;9.202;2023-02-28T02:07:59;-2.40;99.90
5136;DHT22;2586;48.710;9.202;2023-02-28T02:15:44;-2.40;99.90
5136;DHT22;2586;48.710;9.202;2023-02-28T02:21:12;-2.40;99.90
5136;DHT22;2586;48.710;9.202;2023-02-28T02:26:42;-2.40;99.90
5136;DHT22;2586;48.710;9.202;2023-02-28T02:37:44;-2.30;99.90
5136;DHT22;2586;48.710;9.202;2023-02-28T02:40:24;-2.30;99.90
5136;DHT22;2586;48.710;9.202;2023-02-28T02:43:01;-2.30;99.90
5136;DHT22;2586;48.710;9.202;2023-02-28T02:45:38;-2.30;99.90
5136;DHT22;2586;48.710;9.202;2023-02-28T02:48:08;-2.30;99.90
5136;DHT22;2586;48.710;9.202;2023-02-28T02:50:41;-2.30;99.90
5136;DHT22;2586;48.710;9.202;2023-02-28T02:53:08;-2.20;99.90
5136;DHT22;2586;48.710;9.202;2023-02-28T02:55:38;-2.20;99.90
5136;DHT22;2586;48.710;9.202;2023-02-28T02:58:09;-2.20;99.90
5136;DHT22;2586;48.710;9.202;2023-02-28T03:00:42;-2.20;99.90
5136;DHT22;2586;48.710;9.202;2023-02-28T03:03:09;-2.20;99.90
5136;DHT22;2586;48.710;9.202;2023-02-28T03:05:44;-2.20;99.90
5136;DHT22;2586;48.710;9.202;2023-02-28T03:08:10;-2.20;1.00
5136;DHT22;2586;48.710;9.202;2023-02-28T03:10:41;-2.20;99.90
5136;DHT22;2586;48.710;9.202;2023-02-28T03:21:40;-2.20;99.90
5136;DHT22;2586;48.710;9.202;2023-02-28T03:24:13;-2.20;1.00
5136;DHT22;2586;48.710;9.202;2023-02-28T03:26:45;-2.20;1.00
5136;DHT22;2586;48.710;9.202;2023-02-28T03:31:50;-2.20;1.00
5136;DHT22;2586;48.710;9.202;2023-02-28T03:34:24;-2.20;1.00
5136;DHT22;2586;48.710;9.202;2023-02-28T03:36:55;-2.10;1.00
5136;DHT22;2586;48.710;9.202;2023-02-28T03:39:24;-2.10;1.00
5136;DHT22;2586;48.710;9.202;2023-02-28T03:41:59;-2.10;1.00
5136;DHT22;2586;48.710;9.202;2023-02-28T03:44:33;-2.10;1.00
5136;DHT22;2586;48.710;9.202;2023-02-28T03:47:11;-2.10;1.00
5136;DHT22;2586;48.710;9.202;2023-02-28T03:50:06;-2.00;1.00
5136;DHT22;2586;48.710;9.202;2023-02-28T03:52:35;-2.00;1.00
5136;DHT22;2586;48.710;9.202;2023-02-28T03:55:08;-2.00;1.00
5136;DHT22;2586;48.710;9.202;2023-02-28T04:00:34;-2.00;1.00
5136;DHT22;2586;48.710;9.202;2023-02-28T04:03:00;-2.00;1.00
5136;DHT22;2586;48.710;9.202;2023-02-28T04:05:27;-2.00;1.00
5136;DHT22;2586;48.710;9.202;2023-02-28T04:07:53;-2.00;1.00
5136;DHT22;2586;48.710;9.202;2023-02-28T04:10:19;-2.00;1.00
5136;DHT22;2586;48.710;9.202;2023-02-28T04:12:45;-2.00;1.00
5136;DHT22;2586;48.710;9.202;2023-02-28T04:15:11;-2.00;1.00
5136;DHT22;2586;48.710;9.202;2023-02-28T04:17:36;-2.00;1.00
5136;DHT22;2586;48.710;9.202;2023-02-28T04:20:03;-1.90;1.00
5136;DHT22;2586;48.710;9.202;2023-02-28T04:22:29;-2.00;1.00
5136;DHT22;2586;48.710;9.202;2023-02-28T04:24:54;-1.90;1.00
5136;DHT22;2586;48.710;9.202;2023-02-28T04:27:21;-2.00;1.00
5136;DHT22;2586;48.710;9.202;2023-02-28T04:29:46;-1.90;1.00
5136;DHT22;2586;48.710;9.202;2023-02-28T04:32:12;-1.90;1.00
5136;DHT22;2586;48.710;9.202;2023-02-28T04:34:38;-1.90;1.00
5136;DHT22;2586;48.710;9.202;2023-02-28T04:37:04;-1.80;1.00
5136;DHT22;2586;48.710;9.202;2023-02-28T04:39:34;-1.90;1.00
5136;DHT22;2586;48.710;9.202;2023-02-28T04:42:00;-1.80;1.00
5136;DHT22;2586;48.710;9.202;2023-02-28T04:44:25;-1.80;1.00
5136;DHT22;2586;48.710;9.202;2023-02-28T04:46:51;-1.90;1.00
5136;DHT22;2586;48.710;9.202;2023-02-28T04:49:16;-1.80;1.00
5136;DHT22;2586;48.710;9.202;2023-02-28T04:51:42;-1.80;1.00
5136;DHT22;2586;48.710;9.202;2023-02-28T04:54:07;-1.90;1.00
5136;DHT22;2586;48.710;9.202;2023-02-28T04:56:33;-1.90;1.00
5136;DHT22;2586;48.710;9.202;2023-02-28T04:58:59;-1.80;1.00
5136;DHT22;2586;48.710;9.202;2023-02-28T05:01:30;-1.80;1.00
5136;DHT22;2586;48.710;9.202;2023-02-28T05:03:59;-1.80;1.00
5136;DHT22;2586;48.710;9.202;2023-02-28T05:06:28;-1.80;1.00
5136;DHT22;2586;48.710;9.202;2023-02-28T05:08:54;-1.90;1.00
5136;DHT22;2586;48.710;9.202;2023-02-28T05:11:24;-1.80;1.00
5136;DHT22;2586;48.710;9.202;2023-02-28T05:13:51;-1.80;1.00
5136;DHT22;2586;48.710;9.202;2023-02-28T05:16:18;-1.80;1.00
5136;DHT22;2586;48.710;9.202;2023-02-28T05:18:43;-1.80;1.00
5136;DHT22;2586;48.710;9.202;2023-02-28T05:23:53;-1.80;1.00
5136;DHT22;2586;48.710;9.202;2023-02-28T05:26:19;-1.80;1.00
5136;DHT22;2586;48.710;9.202;2023-02-28T05:28:44;-1.80;1.00
5136;DHT22;2586;48.710;9.202;2023-02-28T05:31:11;-1.80;1.00
5136;DHT22;2586;48.710;9.202;2023-02-28T05:33:36;-1.80;1.00
5136;DHT22;2586;48.710;9.202;2023-02-28T05:36:03;-1.80;1.00
5136;DHT22;2586;48.710;9.202;2023-02-28T05:38:29;-1.80;1.00
5136;DHT22;2586;48.710;9.202;2023-02-28T05:40:54;-1.80;1.00
5136;DHT22;2586;48.710;9.202;2023-02-28T05:43:20;-1.80;1.00
5136;DHT22;2586;48.710;9.202;2023-02-28T05:45:45;-1.80;1.00
5136;DHT22;2586;48.710;9.202;2023-02-28T05:48:11;-1.80;1.00
5136;DHT22;2586;48.710;9.202;2023-02-28T05:50:36;-1.80;1.00
5136;DHT22;2586;48.710;9.202;2023-02-28T05:53:02;-1.80;23.20
5136;DHT22;2586;48.710;9.202;2023-02-28T05:55:28;-1.70;1.00
5136;DHT22;2586;48.710;9.202;2023-02-28T05:57:53;-1.70;1.00
5136;DHT22;2586;48.710;9.202;2023-02-28T06:00:19;-1.70;1.00
5136;DHT22;2586;48.710;9.202;2023-02-28T06:02:45;-1.70;1.00
5136;DHT22;2586;48.710;9.202;2023-02-28T06:05:15;-1.70;1.00
5136;DHT22;2586;48.710;9.202;2023-02-28T06:07:41;-1.70;2.20
5136;DHT22;2586;48.710;9.202;2023-02-28T06:10:07;-1.70;1.00
5136;DHT22;2586;48.710;9.202;2023-02-28T06:12:32;-1.70;29.90
5136;DHT22;2586;48.710;9.202;2023-02-28T06:14:58;-1.70;1.00
5136;DHT22;2586;48.710;9.202;2023-02-28T06:17:23;-1.70;1.00
5136;DHT22;2586;48.710;9.202;2023-02-28T06:19:49;-1.70;1.00
5136;DHT22;2586;48.710;9.202;2023-02-28T06:22:14;-1.70;1.00
5136;DHT22;2586;48.710;9.202;2023-02-28T06:24:40;-1.70;1.00
5136;DHT22;2586;48.710;9.202;2023-02-28T06:27:06;-1.60;1.00
5136;DHT22;2586;48.710;9.202;2023-02-28T06:29:32;-1.60;1.00
5136;DHT22;2586;48.710;9.202;2023-02-28T06:31:58;-1.60;1.00
5136;DHT22;2586;48.710;9.202;2023-02-28T06:34:24;-1.60;1.00
5136;DHT22;2586;48.710;9.202;2023-02-28T06:36:51;-1.60;1.00
5136;DHT22;2586;48.710;9.202;2023-02-28T06:39:17;-1.50;1.00
5136;DHT22;2586;48.710;9.202;2023-02-28T06:41:43;-1.50;1.00
5136;DHT22;2586;48.710;9.202;2023-02-28T06:44:16;-1.50;1.00
5136;DHT22;2586;48.710;9.202;2023-02-28T06:46:42;-1.50;1.00
5136;DHT22;2586;48.710;9.202;2023-02-28T06:49:08;-1.50;1.00
5136;DHT22;2586;48.710;9.202;2023-02-28T06:51:35;-1.40;1.00
5136;DHT22;2586;48.710;9.202;2023-02-28T06:54:01;-1.40;1.00
5136;DHT22;2586;48.710;9.202;2023-02-28T06:56:27;-1.40;1.00
5136;DHT22;2586;48.710;9.202;2023-02-28T06:58:53;-1.40;1.00
5136;DHT22;2586;48.710;9.202;2023-02-28T07:01:19;-1.40;1.00
5136;DHT22;2586;48.710;9.202;2023-02-28T07:03:45;-1.30;1.00
5136;DHT22;2586;48.710;9.202;2023-02-28T07:06:10;-1.30;1.00
5136;DHT22;2586;48.710;9.202;2023-02-28T07:08:36;-1.30;1.00
5136;DHT22;2586;48.710;9.202;2023-02-28T07:11:02;-1.30;1.00
5136;DHT22;2586;48.710;9.202;2023-02-28T07:13:28;-1.30;1.00
5136;DHT22;2586;48.710;9.202;2023-02-28T07:18:20;-1.30;99.90
5136;DHT22;2586;48.710;9.202;2023-02-28T07:20:46;-1.30;1.00
5136;DHT22;2586;48.710;9.202;2023-02-28T07:23:11;-1.20;1.00
5136;DHT22;2586;48.710;9.202;2023-02-28T07:25:37;-1.20;1.00
5136;DHT22;2586;48.710;9.202;2023-02-28T07:28:03;-1.20;1.00
5136;DHT22;2586;48.710;9.202;2023-02-28T07:30:28;-1.20;99.90
5136;DHT22;2586;48.710;9.202;2023-02-28T07:32:54;-1.20;99.90
5136;DHT22;2586;48.710;9.202;2023-02-28T07:35:21;-1.20;99.90
5136;DHT22;2586;48.710;9.202;2023-02-28T07:37:47;-1.10;99.90
5136;DHT22;2586;48.710;9.202;2023-02-28T07:40:13;-1.10;99.90
5136;DHT22;2586;48.710;9.202;2023-02-28T07:42:39;-1.10;99.90
5136;DHT22;2586;48.710;9.202;2023-02-28T07:45:06;-1.00;99.90
5136;DHT22;2586;48.710;9.202;2023-02-28T07:47:32;-1.00;99.90
5136;DHT22;2586;48.710;9.202;2023-02-28T07:49:58;-1.00;99.90
5136;DHT22;2586;48.710;9.202;2023-02-28T07:52:24;-1.00;99.90
5136;DHT22;2586;48.710;9.202;2023-02-28T07:54:50;-1.00;99.90
5136;DHT22;2586;48.710;9.202;2023-02-28T07:57:16;-0.90;99.90
5136;DHT22;2586;48.710;9.202;2023-02-28T07:59:42;-0.90;99.90
5136;DHT22;2586;48.710;9.202;2023-02-28T08:02:13;-0.90;99.90
5136;DHT22;2586;48.710;9.202;2023-02-28T08:04:39;-0.90;99.90
5136;DHT22;2586;48.710;9.202;2023-02-28T08:07:05;-0.80;99.90
5136;DHT22;2586;48.710;9.202;2023-02-28T08:09:31;-0.80;99.90
5136;DHT22;2586;48.710;9.202;2023-02-28T08:11:56;-0.80;99.90
5136;DHT22;2586;48.710;9.202;2023-02-28T08:14:22;-0.80;99.90
5136;DHT22;2586;48.710;9.202;2023-02-28T08:16:47;-0.80;99.90
5136;DHT22;2586;48.710;9.202;2023-02-28T08:19:13;-0.70;99.90
5136;DHT22;2586;48.710;9.202;2023-02-28T08:21:39;-0.70;99.90
5136;DHT22;2586;48.710;9.202;2023-02-28T08:24:05;-0.70;99.90
5136;DHT22;2586;48.710;9.202;2023-02-28T08:26:31;-0.70;99.90
5136;DHT22;2586;48.710;9.202;2023-02-28T08:28:57;-0.60;99.90
5136;DHT22;2586;48.710;9.202;2023-02-28T08:31:22;-0.60;99.90
5136;DHT22;2586;48.710;9.202;2023-02-28T08:33:48;-0.50;99.90
5136;DHT22;2586;48.710;9.202;2023-02-28T08:36:16;-0.50;99.90
5136;DHT22;2586;48.710;9.202;2023-02-28T08:38:42;-0.50;99.90
5136;DHT22;2586;48.710;9.202;2023-02-28T08:41:10;-0.50;99.90
5136;DHT22;2586;48.710;9.202;2023-02-28T08:43:36;-0.50;99.90
5136;DHT22;2586;48.710;9.202;2023-02-28T08:46:06;-0.50;99.90
5136;DHT22;2586;48.710;9.202;2023-02-28T08:48:33;-0.40;99.90
5136;DHT22;2586;48.710;9.202;2023-02-28T08:51:02;-0.40;99.90
5136;DHT22;2586;48.710;9.202;2023-02-28T08:53:28;-0.30;99.90
5136;DHT22;2586;48.710;9.202;2023-02-28T08:58:23;-0.20;99.90
5136;DHT22;2586;48.710;9.202;2023-02-28T09:00:49;-0.10;99.90
5136;DHT22;2586;48.710;9.202;2023-02-28T09:03:15;-0.10;99.90
5136;DHT22;2586;48.710;9.202;2023-02-28T09:05:41;-0.10;99.90
5136;DHT22;2586;48.710;9.202;2023-02-28T09:08:06;-0.10;99.90
5136;DHT22;2586;48.710;9.202;2023-02-28T09:10:32;0.00;99.90
5136;DHT22;2586;48.710;9.202;2023-02-28T09:12:57;0.00;99.90
5136;DHT22;2586;48.710;9.202;2023-02-28T09:15:23;0.00;99.90
5136;DHT22;2586;48.710;9.202;2023-02-28T09:17:48;0.10;99.90
5136;DHT22;2586;48.710;9.202;2023-02-28T09:20:15;0.00;99.90
5136;DHT22;2586;48.710;9.202;2023-02-28T09:22:41;0.10;99.90
5136;DHT22;2586;48.710;9.202;2023-02-28T09:25:06;0.20;99.90
5136;DHT22;2586;48.710;9.202;2023-02-28T09:27:32;0.20;99.90
5136;DHT22;2586;48.710;9.202;2023-02-28T09:29:58;0.10;99.90
5136;DHT22;2586;48.710;9.202;2023-02-28T09:32:23;0.00;99.90
5136;DHT22;2586;48.710;9.202;2023-02-28T09:34:49;0.10;99.90
5136;DHT22;2586;48.710;9.202;2023-02-28T09:37:14;0.20;99.90
5136;DHT22;2586;48.710;9.202;2023-02-28T09:39:40;0.30;99.90
5136;DHT22;2586;48.710;9.202;2023-02-28T09:42:11;0.30;99.90
5136;DHT22;2586;48.710;9.202;2023-02-28T09:44:44;0.40;99.90
5136;DHT22;2586;48.710;9.202;2023-02-28T09:47:31;0.40;99.90
5136;DHT22;2586;48.710;9.202;2023-02-28T09:52:48;0.50;99.90
5136;DHT22;2586;48.710;9.202;2023-02-28T09:57:44;0.50;99.90
5136;DHT22;2586;48.710;9.202;2023-02-28T10:00:32;0.60;99.90
5136;DHT22;2586;48.710;9.202;2023-02-28T10:05:37;0.80;99.90
5136;DHT22;2586;48.710;9.202;2023-02-28T10:08:12;0.90;99.90
5136;DHT22;2586;48.710;9.202;2023-02-28T10:10:50;1.10;99.90
5136;DHT22;2586;48.710;9.202;2023-02-28T10:13:24;1.20;99.90
5136;DHT22;2586;48.710;9.202;2023-02-28T10:15:58;1.30;99.90
5136;DHT22;2586;48.710;9.202;2023-02-28T10:18:37;1.30;99.90
5136;DHT22;2586;48.710;9.202;2023-02-28T10:21:04;1.20;99.90
5136;DHT22;2586;48.710;9.202;2023-02-28T10:23:37;1.20;99.90
5136;DHT22;2586;48.710;9.202;2023-02-28T10:26:12;1.30;99.90
5136;DHT22;2586;48.710;9.202;2023-02-28T10:28:39;1.40;99.90
5136;DHT22;2586;48.710;9.202;2023-02-28T10:31:05;1.40;99.90
5136;DHT22;2586;48.710;9.202;2023-02-28T10:33:34;1.50;99.90
5136;DHT22;2586;48.710;9.202;2023-02-28T10:36:02;1.50;99.90
5136;DHT22;2586;48.710;9.202;2023-02-28T10:38:33;1.50;99.90
5136;DHT22;2586;48.710;9.202;2023-02-28T10:41:14;1.60;99.90
5136;DHT22;2586;48.710;9.202;2023-02-28T10:43:42;1.90;99.90
5136;DHT22;2586;48.710;9.202;2023-02-28T10:48:44;2.20;99.90
5136;DHT22;2586;48.710;9.202;2023-02-28T10:51:15;2.20;99.90
5136;DHT22;2586;48.710;9.202;2023-02-28T10:53:50;2.30;99.90
5136;DHT22;2586;48.710;9.202;2023-02-28T10:56:24;2.40;97.60
5136;DHT22;2586;48.710;9.202;2023-02-28T11:04:00;4.20;99.90
5136;DHT22;2586;48.710;9.202;2023-02-28T11:06:32;5.30;60.80
5136;DHT22;2586;48.710;9.202;2023-02-28T11:09:06;5.60;33.90
5136;DHT22;2586;48.710;9.202;2023-02-28T11:11:47;6.60;27.30
5136;DHT22;2586;48.710;9.202;2023-02-28T11:14:28;6.40;10.80
5136;DHT22;2586;48.710;9.202;2023-02-28T11:17:11;6.00;8.60
5136;DHT22;2586;48.710;9.202;2023-02-28T11:19:44;6.70;6.80
5136;DHT22;2586;48.710;9.202;2023-02-28T11:22:20;7.40;4.60
5136;DHT22;2586;48.710;9.202;2023-02-28T11:24:51;7.70;1.00
5136;DHT22;2586;48.710;9.202;2023-02-28T11:29:55;8.10;1.00
5136;DHT22;2586;48.710;9.202;2023-02-28T11:32:26;8.90;1.00
5136;DHT22;2586;48.710;9.202;2023-02-28T11:35:16;9.60;1.00
5136;DHT22;2586;48.710;9.202;2023-02-28T11:37:45;9.00;1.00
5136;DHT22;2586;48.710;9.202;2023-02-28T11:40:15;9.20;1.00
5136;DHT22;2586;48.710;9.202;2023-02-28T11:45:51;8.70;1.00
5136;DHT22;2586;48.710;9.202;2023-02-28T11:49:10;9.80;1.00
5136;DHT22;2586;48.710;9.202;2023-02-28T11:56:55;9.90;1.00
5136;DHT22;2586;48.710;9.202;2023-02-28T12:08:06;11.80;1.00
5136;DHT22;2586;48.710;9.202;2023-02-28T12:13:46;11.80;1.00
5136;DHT22;2586;48.710;9.202;2023-02-28T12:16:37;12.50;1.00
5136;DHT22;2586;48.710;9.202;2023-02-28T12:22:20;13.00;1.00
5136;DHT22;2586;48.710;9.202;2023-02-28T12:27:34;12.20;1.00
5136;DHT22;2586;48.710;9.202;2023-02-28T12:33:01;10.40;1.00
5136;DHT22;2586;48.710;9.202;2023-02-28T12:35:38;8.80;1.00
5136;DHT22;2586;48.710;9.202;2023-02-28T12:38:20;9.10;1.00
5136;DHT22;2586;48.710;9.202;2023-02-28T12:43:21;9.30;1.00
5136;DHT22;2586;48.710;9.202;2023-02-28T12:45:59;10.40;1.00
5136;DHT22;2586;48.710;9.202;2023-02-28T12:50:56;11.70;1.00
5136;DHT22;2586;48.710;9.202;2023-02-28T12:53:57;12.20;1.00
5136;DHT22;2586;48.710;9.202;2023-02-28T12:56:42;12.30;1.00
5136;DHT22;2586;48.710;9.202;2023-02-28T12:59:18;13.10;1.00
5136;DHT22;2586;48.710;9.202;2023-02-28T13:01:57;13.60;1.00
5136;DHT22;2586;48.710;9.202;2023-02-28T13:04:43;13.50;1.00
5136;DHT22;2586;48.710;9.202;2023-02-28T13:09:56;12.90;1.00
5136;DHT22;2586;48.710;9.202;2023-02-28T13:12:23;12.20;1.00
5136;DHT22;2586;48.710;9.202;2023-02-28T13:14:50;12.40;1.00
5136;DHT22;2586;48.710;9.202;2023-02-28T13:17:26;12.30;1.00
5136;DHT22;2586;48.710;9.202;2023-02-28T13:22:41;11.70;1.00
5136;DHT22;2586;48.710;9.202;2023-02-28T13:28:12;11.70;1.00
5136;DHT22;2586;48.710;9.202;2023-02-28T13:33:34;12.70;1.00
5136;DHT22;2586;48.710;9.202;2023-02-28T13:38:45;12.90;1.00
5136;DHT22;2586;48.710;9.202;2023-02-28T13:44:07;14.00;1.00
5136;DHT22;2586;48.710;9.202;2023-02-28T13:46:36;14.00;1.00
5136;DHT22;2586;48.710;9.202;2023-02-28T13:55:13;13.60;1.00
5136;DHT22;2586;48.710;9.202;2023-02-28T13:58:07;13.60;1.00
5136;DHT22;2586;48.710;9.202;2023-02-28T14:05:40;13.00;1.00
5136;DHT22;2586;48.710;9.202;2023-02-28T14:08:13;13.10;1.00
5136;DHT22;2586;48.710;9.202;2023-02-28T14:10:45;13.00;1.00
5136;DHT22;2586;48.710;9.202;2023-02-28T14:16:06;12.60;1.00
5136;DHT22;2586;48.710;9.202;2023-02-28T14:18:34;12.80;1.00
5136;DHT22;2586;48.710;9.202;2023-02-28T14:24:09;12.80;1.00
5136;DHT22;2586;48.710;9.202;2023-02-28T14:27:03;13.00;1.00
5136;DHT22;2586;48.710;9.202;2023-02-28T14:29:46;13.20;1.00
5136;DHT22;2586;48.710;9.202;2023-02-28T14:32:45;13.60;1.00
5136;DHT22;2586;48.710;9.202;2023-02-28T14:37:47;14.10;1.00
5136;DHT22;2586;48.710;9.202;2023-02-28T14:40:33;13.70;1.00
5136;DHT22;2586;48.710;9.202;2023-02-28T14:43:03;13.20;1.00
5136;DHT22;2586;48.710;9.202;2023-02-28T14:45:30;13.10;1.00
5136;DHT22;2586;48.710;9.202;2023-02-28T14:47:57;13.10;1.00
5136;DHT22;2586;48.710;9.202;2023-02-28T14:50:35;12.70;1.00
5136;DHT22;2586;48.710;9.202;2023-02-28T14:53:02;12.50;1.00
5136;DHT22;2586;48.710;9.202;2023-02-28T14:55:34;13.00;1.00
5136;DHT22;2586;48.710;9.202;2023-02-28T14:58:02;13.40;1.00
5136;DHT22;2586;48.710;9.202;2023-02-28T15:00:34;13.90;1.00
5136;DHT22;2586;48.710;9.202;2023-02-28T15:06:03;13.60;1.00
5136;DHT22;2586;48.710;9.202;2023-02-28T15:08:30;13.70;1.00
5136;DHT22;2586;48.710;9.202;2023-02-28T15:11:06;13.30;1.00
5136;DHT22;2586;48.710;9.202;2023-02-28T15:19:02;12.60;1.00
5136;DHT22;2586;48.710;9.202;2023-02-28T15:21:33;12.00;1.00
5136;DHT22;2586;48.710;9.202;2023-02-28T15:24:03;11.70;1.00
5136;DHT22;2586;48.710;9.202;2023-02-28T15:26:33;11.70;1.00
5136;DHT22;2586;48.710;9.202;2023-02-28T15:29:01;12.00;1.00
5136;DHT22;2586;48.710;9.202;2023-02-28T15:31:32;12.30;1.00
5136;DHT22;2586;48.710;9.202;2023-02-28T15:34:03;12.30;1.00
5136;DHT22;2586;48.710;9.202;2023-02-28T15:36:32;12.20;1.00
5136;DHT22;2586;48.710;9.202;2023-02-28T15:38:59;12.20;1.00
5136;DHT22;2586;48.710;9.202;2023-02-28T15:41:29;12.00;1.00
5136;DHT22;2586;48.710;9.202;2023-02-28T15:44:27;11.90;1.00
5136;DHT22;2586;48.710;9.202;2023-02-28T15:49:28;11.80;1.00
5136;DHT22;2586;48.710;9.202;2023-02-28T15:51:58;11.80;1.00
5136;DHT22;2586;48.710;9.202;2023-02-28T15:54:29;11.70;1.00
5136;DHT22;2586;48.710;9.202;2023-02-28T15:57:03;11.70;1.00
5136;DHT22;2586;48.710;9.202;2023-02-28T15:59:32;11.30;1.00
5136;DHT22;2586;48.710;9.202;2023-02-28T16:02:14;10.60;1.00
5136;DHT22;2586;48.710;9.202;2023-02-28T16:07:29;10.30;1.00
5136;DHT22;2586;48.710;9.202;2023-02-28T16:09:55;10.10;1.00
5136;DHT22;2586;48.710;9.202;2023-02-28T16:12:26;10.10;1.00
5136;DHT22;2586;48.710;9.202;2023-02-28T16:14:53;9.90;1.00
5136;DHT22;2586;48.710;9.202;2023-02-28T16:17:28;9.60;1.00
5136;DHT22;2586;48.710;9.202;2023-02-28T16:19:55;9.30;1.00
5136;DHT22;2586;48.710;9.202;2023-02-28T16:22:23;9.20;1.00
5136;DHT22;2586;48.710;9.202;2023-02-28T16:24:49;8.70;1.00
5136;DHT22;2586;48.710;9.202;2023-02-28T16:27:51;8.40;1.00
5136;DHT22;2586;48.710;9.202;2023-02-28T16:30:25;8.10;1.00
5136;DHT22;2586;48.710;9.202;2023-02-28T16:32:52;7.70;1.00
5136;DHT22;2586;48.710;9.202;2023-02-28T16:35:19;7.70;1.00
5136;DHT22;2586;48.710;9.202;2023-02-28T16:37:45;7.80;1.00
5136;DHT22;2586;48.710;9.202;2023-02-28T16:40:23;7.70;1.00
5136;DHT22;2586;48.710;9.202;2023-02-28T16:42:52;7.30;1.00
5136;DHT22;2586;48.710;9.202;2023-02-28T16:45:22;6.50;1.00
5136;DHT22;2586;48.710;9.202;2023-02-28T16:47:47;5.80;1.00
5136;DHT22;2586;48.710;9.202;2023-02-28T16:50:25;5.50;1.00
5136;DHT22;2586;48.710;9.202;2023-02-28T16:52:51;5.10;1.00
5136;DHT22;2586;48.710;9.202;2023-02-28T16:55:21;4.90;1.00
5136;DHT22;2586;48.710;9.202;2023-02-28T16:57:58;4.50;1.00
5136;DHT22;2586;48.710;9.202;2023-02-28T17:00:25;4.40;1.00
5136;DHT22;2586;48.710;9.202;2023-02-28T17:02:52;4.20;1.00
5136;DHT22;2586;48.710;9.202;2023-02-28T17:05:18;4.00;1.00
5136;DHT22;2586;48.710;9.202;2023-02-28T17:07:44;3.90;1.00
5136;DHT22;2586;48.710;9.202;2023-02-28T17:10:19;3.80;1.00
5136;DHT22;2586;48.710;9.202;2023-02-28T17:12:44;3.60;1.00
5136;DHT22;2586;48.710;9.202;2023-02-28T17:15:11;3.50;1.00
5136;DHT22;2586;48.710;9.202;2023-02-28T17:17:37;3.40;1.00
5136;DHT22;2586;48.710;9.202;2023-02-28T17:20:04;3.30;1.00
5136;DHT22;2586;48.710;9.202;2023-02-28T17:22:31;3.30;1.00
5136;DHT22;2586;48.710;9.202;2023-02-28T17:24:56;3.20;1.00
5136;DHT22;2586;48.710;9.202;2023-02-28T17:27:23;3.10;1.00
5136;DHT22;2586;48.710;9.202;2023-02-28T17:29:48;3.00;1.00
5136;DHT22;2586;48.710;9.202;2023-02-28T17:32:14;3.00;1.00
5136;DHT22;2586;48.710;9.202;2023-02-28T17:34:39;2.90;1.00
5136;DHT22;2586;48.710;9.202;2023-02-28T17:37:05;2.90;1.00
5136;DHT22;2586;48.710;9.202;2023-02-28T17:39:31;2.90;1.00
5136;DHT22;2586;48.710;9.202;2023-02-28T17:41:56;2.80;1.00
5136;DHT22;2586;48.710;9.202;2023-02-28T17:44:23;2.80;1.00
5136;DHT22;2586;48.710;9.202;2023-02-28T17:46:49;2.70;1.00
5136;DHT22;2586;48.710;9.202;2023-02-28T17:49:16;2.70;1.00
5136;DHT22;2586;48.710;9.202;2023-02-28T17:51:42;2.60;1.00
5136;DHT22;2586;48.710;9.202;2023-02-28T17:54:08;2.60;1.00
5136;DHT22;2586;48.710;9.202;2023-02-28T17:56:34;2.50;1.00
5136;DHT22;2586;48.710;9.202;2023-02-28T17:59:00;2.50;1.00
5136;DHT22;2586;48.710;9.202;2023-02-28T18:01:26;2.50;1.00
5136;DHT22;2586;48.710;9.202;2023-02-28T18:03:52;2.50;1.00
5136;DHT22;2586;48.710;9.202;2023-02-28T18:06:36;2.40;1.00
5136;DHT22;2586;48.710;9.202;2023-02-28T18:09:12;2.40;2.10
5136;DHT22;2586;48.710;9.202;2023-02-28T18:11:37;2.30;2.30
5136;DHT22;2586;48.710;9.202;2023-02-28T18:14:15;2.30;5.30
5136;DHT22;2586;48.710;9.202;2023-02-28T18:16:41;2.20;5.40
5136;DHT22;2586;48.710;9.202;2023-02-28T18:19:07;2.20;6.50
5136;DHT22;2586;48.710;9.202;2023-02-28T18:21:45;2.20;8.00
5136;DHT22;2586;48.710;9.202;2023-02-28T18:24:12;2.20;8.20
5136;DHT22;2586;48.710;9.202;2023-02-28T18:26:38;2.20;8.90
5136;DHT22;2586;48.710;9.202;2023-02-28T18:29:05;2.10;13.10
5136;DHT22;2586;48.710;9.202;2023-02-28T18:31:31;2.20;11.70
5136;DHT22;2586;48.710;9.202;2023-02-28T18:33:57;2.10;12.70
5136;DHT22;2586;48.710;9.202;2023-02-28T18:36:24;2.10;13.70
5136;DHT22;2586;48.710;9.202;2023-02-28T18:38:50;2.10;15.50
5136;DHT22;2586;48.710;9.202;2023-02-28T18:41:16;2.10;13.90
5136;DHT22;2586;48.710;9.202;2023-02-28T18:43:42;2.00;14.60
5136;DHT22;2586;48.710;9.202;2023-02-28T18:46:13;2.00;15.40
5136;DHT22;2586;48.710;9.202;2023-02-28T18:48:39;1.90;16.90
5136;DHT22;2586;48.710;9.202;2023-02-28T18:51:13;1.90;17.30
5136;DHT22;2586;48.710;9.202;2023-02-28T18:53:40;1.80;18.90